sensor_id;sensor_type;location;lat;lon;timestamp;temperature;humidity
9385;DHT22;4732;49.340;10.886;2023-07-29T03:00:31;16.30;99.90
9385;DHT22;4732;49.340;10.886;2023-07-29T03:02:58;16.20;99.90
9385;DHT22;4732;49.340;10.886;2023-07-29T03:05:23;16.20;99.90
9385;DHT22;4732;49.340;10.886;2023-07-29T03:07:49;16.10;99.90
9385;DHT22;4732;49.340;10.886;2023-07-29T03:10:14;16.20;99.90
9385;DHT22;4732;49.340;10.886;2023-07-29T03:12:40;16.00;99.90
9385;DHT22;4732;49.340;10.886;2023-07-29T03:15:06;16.00;99.90
9385;DHT22;4732;49.340;10.886;2023-07-29T03:17:32;16.00;99.90
9385;DHT22;4732;49.340;10.886;2023-07-29T03:19:57;16.00;99.90
9385;DHT22;4732;49.340;10.886;2023-07-29T03:22:23;15.90;99.90
9385;DHT22;4732;49.340;10.886;2023-07-29T03:24:48;16.00;99.90
9385;DHT22;4732;49.340;10.886;2023-07-29T03:27:14;16.00;99.90
9385;DHT22;4732;49.340;10.886;2023-07-29T03:29:41;15.90;99.90
9385;DHT22;4732;49.340;10.886;2023-07-29T03:32:07;15.80;99.90
9385;DHT22;4732;49.340;10.886;2023-07-29T03:34:32;15.80;99.90
9385;DHT22;4732;49.340;10.886;2023-07-29T03:36:59;15.90;99.90
9385;DHT22;4732;49.340;10.886;2023-07-29T03:39:24;15.90;99.90
9385;DHT22;4732;49.340;10.886;2023-07-29T03:41:50;16.00;99.90
9385;DHT22;4732;49.340;10.886;2023-07-29T03:44:15;16.10;99.90
9385;DHT22;4732;49.340;10.886;2023-07-29T03:46:41;16.10;99.90
9385;DHT22;4732;49.340;10.886;2023-07-29T03:49:06;16.10;99.90
9385;DHT22;4732;49.340;10.886;2023-07-29T03:51:32;16.20;99.90
9385;DHT22;4732;49.340;10.886;2023-07-29T03:53:57;16.20;99.90
9385;DHT22;4732;49.340;10.886;2023-07-29T03:56:23;16.30;99.90
9385;DHT22;4732;49.340;10.886;2023-07-29T03:58:48;16.30;99.90
9385;DHT22;4732;49.340;10.886;2023-07-29T04:01:14;16.20;99.90
9385;DHT22;4732;49.340;10.886;2023-07-29T04:03:40;16.30;99.90
9385;DHT22;4732;49.340;10.886;2023-07-29T04:06:05;16.30;99.90
9385;DHT22;4732;49.340;10.886;2023-07-29T04:08:31;16.30;99.90
9385;DHT22;4732;49.340;10.886;2023-07-29T04:10:57;16.30;99.90
9385;DHT22;4732;49.340;10.886;2023-07-29T04:13:23;16.30;99.90
9385;DHT22;4732;49.340;10.886;2023-07-29T04:15:48;16.30;99.90
9385;DHT22;4732;49.340;10.886;2023-07-29T04:18:14;16.40;99.90
9385;DHT22;4732;49.340;10.886;2023-07-29T04:20:39;16.40;99.90
9385;DHT22;4732;49.340;10.886;2023-07-29T04:23:05;16.40;99.90
9385;DHT22;4732;49.340;10.886;2023-07-29T04:25:30;16.50;99.90
9385;DHT22;4732;49.340;10.886;2023-07-29T04:27:56;16.50;99.90
9385;DHT22;4732;49.340;10.886;2023-07-29T04:30:23;16.60;99.90
9385;DHT22;4732;49.340;10.886;2023-07-29T04:32:48;16.60;99.90
9385;DHT22;4732;49.340;10.886;2023-07-29T04:35:14;16.70;99.90
9385;DHT22;4732;49.340;10.886;2023-07-29T04:37:40;16.70;99.90
9385;DHT22;4732;49.340;10.886;2023-07-29T04:40:06;16.80;99.90
9385;DHT22;4732;49.340;10.886;2023-07-29T04:42:32;16.90;99.90
9385;DHT22;4732;49.340;10.886;2023-07-29T04:44:57;17.00;99.90
9385;DHT22;4732;49.340;10.886;2023-07-29T04:47:23;17.10;99.90
9385;DHT22;4732;49.340;10.886;2023-07-29T04:49:48;17.20;99.90
9385;DHT22;4732;49.340;10.886;2023-07-29T04:52:14;17.30;99.90
9385;DHT22;4732;49.340;10.886;2023-07-29T04:54:40;17.40;99.90
9385;DHT22;4732;49.340;10.886;2023-07-29T04:57:06;17.50;99.90
9385;DHT22;4732;49.340;10.886;2023-07-29T04:59:32;17.50;99.90
9385;DHT22;4732;49.340;10.886;2023-07-29T05:01:57;17.50;99.90
9385;DHT22;4732;49.340;10.886;2023-07-29T05:04:23;17.50;99.90
9385;DHT22;4732;49.340;10.886;2023-07-29T05:06:49;17.50;99.90
9385;DHT22;4732;49.340;10.886;2023-07-29T05:09:16;17.50;99.90
9385;DHT22;4732;49.340;10.886;2023-07-29T05:11:43;17.50;99.90
9385;DHT22;4732;49.340;10.886;2023-07-29T05:14:11;17.60;99.90
9385;DHT22;4732;49.340;10.886;2023-07-29T05:16:36;17.60;99.90
9385;DHT22;4732;49.340;10.886;2023-07-29T05:19:02;17.60;99.90
9385;DHT22;4732;49.340;10.886;2023-07-29T05:21:27;17.60;99.90
9385;DHT22;4732;49.340;10.886;2023-07-29T05:23:53;17.60;99.90
9385;DHT22;4732;49.340;10.886;2023-07-29T05:26:18;17.60;99.90
9385;DHT22;4732;49.340;10.886;2023-07-29T05:28:44;17.70;99.90
9385;DHT22;4732;49.340;10.886;2023-07-29T05:31:09;17.80;99.90
9385;DHT22;4732;49.340;10.886;2023-07-29T05:33:35;17.80;99.90
9385;DHT22;4732;49.340;10.886;2023-07-29T05:36:01;17.90;99.90
9385;DHT22;4732;49.340;10.886;2023-07-29T05:38:27;17.90;99.90
9385;DHT22;4732;49.340;10.886;2023-07-29T05:40:52;17.90;99.90
9385;DHT22;4732;49.340;10.886;2023-07-29T05:43:18;17.90;99.90
9385;DHT22;4732;49.340;10.886;2023-07-29T05:45:43;17.90;99.90
9385;DHT22;4732;49.340;10.886;2023-07-29T05:48:09;18.00;99.90
9385;DHT22;4732;49.340;10.886;2023-07-29T05:50:34;18.00;99.90
9385;DHT22;4732;49.340;10.886;2023-07-29T05:53:00;17.90;99.90
9385;DHT22;4732;49.340;10.886;2023-07-29T05:55:25;17.90;99.90
9385;DHT22;4732;49.340;10.886;2023-07-29T05:57:51;17.90;99.90
9385;DHT22;4732;49.340;10.886;2023-07-29T06:00:16;17.90;99.90
9385;DHT22;4732;49.340;10.886;2023-07-29T06:02:42;17.90;99.90
9385;DHT22;4732;49.340;10.886;2023-07-29T06:05:08;18.00;99.90
9385;DHT22;4732;49.340;10.886;2023-07-29T06:07:33;18.00;99.90
9385;DHT22;4732;49.340;10.886;2023-07-29T06:10:00;18.00;99.90
9385;DHT22;4732;49.340;10.886;2023-07-29T06:12:25;18.10;99.90
9385;DHT22;4732;49.340;10.886;2023-07-29T06:14:51;18.10;99.90
9385;DHT22;4732;49.340;10.886;2023-07-29T06:17:17;18.00;99.90
9385;DHT22;4732;49.340;10.886;2023-07-29T06:19:43;18.00;99.90
9385;DHT22;4732;49.340;10.886;2023-07-29T06:22:09;18.00;99.90
9385;DHT22;4732;49.340;10.886;2023-07-29T06:24:35;18.00;99.90
9385;DHT22;4732;49.340;10.886;2023-07-29T06:27:00;18.00;99.90
9385;DHT22;4732;49.340;10.886;2023-07-29T06:29:26;17.90;99.90
9385;DHT22;4732;49.340;10.886;2023-07-29T06:31:52;17.90;99.90
9385;DHT22;4732;49.340;10.886;2023-07-29T06:34:17;17.90;99.90
9385;DHT22;4732;49.340;10.886;2023-07-29T06:36:44;17.90;99.90
9385;DHT22;4732;49.340;10.886;2023-07-29T06:39:09;17.90;99.90
9385;DHT22;4732;49.340;10.886;2023-07-29T06:41:35;17.90;99.90
9385;DHT22;4732;49.340;10.886;2023-07-29T06:44:00;17.80;99.90
9385;DHT22;4732;49.340;10.886;2023-07-29T06:46:26;17.80;99.90
9385;DHT22;4732;49.340;10.886;2023-07-29T06:48:51;17.80;99.90
9385;DHT22;4732;49.340;10.886;2023-07-29T06:51:17;17.70;99.90
9385;DHT22;4732;49.340;10.886;2023-07-29T06:53:42;17.70;99.90
9385;DHT22;4732;49.340;10.886;2023-07-29T06:56:08;17.80;99.90
9385;DHT22;4732;49.340;10.886;2023-07-29T06:58:34;17.70;99.90
9385;DHT22;4732;49.340;10.886;2023-07-29T07:01:00;17.80;99.90
9385;DHT22;4732;49.340;10.886;2023-07-29T07:03:25;17.80;99.90
9385;DHT22;4732;49.340;10.886;2023-07-29T07:05:51;17.90;99.90
9385;DHT22;4732;49.340;10.886;2023-07-29T07:08:16;17.90;99.90
9385;DHT22;4732;49.340;10.886;2023-07-29T07:10:42;18.00;99.90
9385;DHT22;4732;49.340;10.886;2023-07-29T07:13:07;18.00;99.90
9385;DHT22;4732;49.340;10.886;2023-07-29T07:15:33;18.10;99.90
9385;DHT22;4732;49.340;10.886;2023-07-29T07:17:58;18.20;99.90
9385;DHT22;4732;49.340;10.886;2023-07-29T07:20:24;18.30;99.90
9385;DHT22;4732;49.340;10.886;2023-07-29T07:22:49;18.40;99.90
9385;DHT22;4732;49.340;10.886;2023-07-29T07:25:15;18.50;99.90
9385;DHT22;4732;49.340;10.886;2023-07-29T07:27:40;18.50;99.90
9385;DHT22;4732;49.340;10.886;2023-07-29T07:30:06;18.70;99.90
9385;DHT22;4732;49.340;10.886;2023-07-29T07:32:32;18.70;99.90
9385;DHT22;4732;49.340;10.886;2023-07-29T07:34:57;18.70;99.90
9385;DHT22;4732;49.340;10.886;2023-07-29T07:37:23;18.80;99.90
9385;DHT22;4732;49.340;10.886;2023-07-29T07:39:48;18.90;99.90
9385;DHT22;4732;49.340;10.886;2023-07-29T07:42:14;18.90;99.90
9385;DHT22;4732;49.340;10.886;2023-07-29T07:44:39;18.80;99.90
9385;DHT22;4732;49.340;10.886;2023-07-29T07:47:05;18.90;99.90
9385;DHT22;4732;49.340;10.886;2023-07-29T07:49:31;18.90;99.90
9385;DHT22;4732;49.340;10.886;2023-07-29T07:51:56;19.00;99.90
9385;DHT22;4732;49.340;10.886;2023-07-29T07:54:22;19.00;99.90
9385;DHT22;4732;49.340;10.886;2023-07-29T07:56:47;19.00;99.90
9385;DHT22;4732;49.340;10.886;2023-07-29T07:59:13;19.10;99.90
9385;DHT22;4732;49.340;10.886;2023-07-29T08:01:39;19.10;99.90
9385;DHT22;4732;49.340;10.886;2023-07-29T08:04:05;19.00;99.90
9385;DHT22;4732;49.340;10.886;2023-07-29T08:06:31;19.00;99.90
9385;DHT22;4732;49.340;10.886;2023-07-29T08:08:57;18.90;99.90
9385;DHT22;4732;49.340;10.886;2023-07-29T08:11:23;18.90;99.90
9385;DHT22;4732;49.340;10.886;2023-07-29T08:13:49;18.90;99.90
9385;DHT22;4732;49.340;10.886;2023-07-29T08:16:14;18.90;99.90
9385;DHT22;4732;49.340;10.886;2023-07-29T08:18:40;18.80;99.90
9385;DHT22;4732;49.340;10.886;2023-07-29T08:21:06;18.70;99.90
9385;DHT22;4732;49.340;10.886;2023-07-29T08:23:33;18.80;99.90
9385;DHT22;4732;49.340;10.886;2023-07-29T08:26:00;18.70;99.90
9385;DHT22;4732;49.340;10.886;2023-07-29T08:28:32;18.70;99.90
9385;DHT22;4732;49.340;10.886;2023-07-29T08:30:58;18.70;99.90
9385;DHT22;4732;49.340;10.886;2023-07-29T08:33:24;18.80;99.90
9385;DHT22;4732;49.340;10.886;2023-07-29T08:35:50;18.80;99.90
9385;DHT22;4732;49.340;10.886;2023-07-29T08:38:16;18.80;99.90
9385;DHT22;4732;49.340;10.886;2023-07-29T08:41:10;18.80;99.90
9385;DHT22;4732;49.340;10.886;2023-07-29T08:43:38;18.70;99.90
9385;DHT22;4732;49.340;10.886;2023-07-29T08:46:04;18.80;99.90
9385;DHT22;4732;49.340;10.886;2023-07-29T08:48:51;18.70;99.90
9385;DHT22;4732;49.340;10.886;2023-07-29T08:51:17;18.60;99.90
9385;DHT22;4732;49.340;10.886;2023-07-29T08:53:44;18.50;99.90
9385;DHT22;4732;49.340;10.886;2023-07-29T08:56:10;18.50;99.90
9385;DHT22;4732;49.340;10.886;2023-07-29T08:58:36;18.50;99.90
9385;DHT22;4732;49.340;10.886;2023-07-29T09:01:02;18.40;99.90
9385;DHT22;4732;49.340;10.886;2023-07-29T09:03:28;18.50;99.90
9385;DHT22;4732;49.340;10.886;2023-07-29T09:05:54;18.40;99.90
9385;DHT22;4732;49.340;10.886;2023-07-29T09:08:21;18.50;99.90
9385;DHT22;4732;49.340;10.886;2023-07-29T09:10:47;18.60;99.90
9385;DHT22;4732;49.340;10.886;2023-07-29T09:13:12;18.50;99.90
9385;DHT22;4732;49.340;10.886;2023-07-29T09:15:38;18.60;99.90
9385;DHT22;4732;49.340;10.886;2023-07-29T09:18:12;18.60;99.90
9385;DHT22;4732;49.340;10.886;2023-07-29T09:20:37;18.70;99.90
9385;DHT22;4732;49.340;10.886;2023-07-29T09:23:03;18.70;99.90
9385;DHT22;4732;49.340;10.886;2023-07-29T09:25:32;18.70;99.90
9385;DHT22;4732;49.340;10.886;2023-07-29T09:28:01;18.70;99.90
9385;DHT22;4732;49.340;10.886;2023-07-29T09:30:27;18.70;99.90
9385;DHT22;4732;49.340;10.886;2023-07-29T09:32:56;18.70;99.90
9385;DHT22;4732;49.340;10.886;2023-07-29T09:35:22;18.70;99.90
9385;DHT22;4732;49.340;10.886;2023-07-29T09:37:48;18.80;99.90
9385;DHT22;4732;49.340;10.886;2023-07-29T09:40:14;19.00;99.90
9385;DHT22;4732;49.340;10.886;2023-07-29T09:42:51;19.10;99.90
9385;DHT22;4732;49.340;10.886;2023-07-29T09:45:24;19.30;99.90
9385;DHT22;4732;49.340;10.886;2023-07-29T09:47:50;19.40;99.90
9385;DHT22;4732;49.340;10.886;2023-07-29T09:50:16;19.50;99.90
9385;DHT22;4732;49.340;10.886;2023-07-29T09:52:42;19.70;99.90
9385;DHT22;4732;49.340;10.886;2023-07-29T09:55:12;19.70;99.90
9385;DHT22;4732;49.340;10.886;2023-07-29T09:57:39;19.80;99.90
9385;DHT22;4732;49.340;10.886;2023-07-29T10:00:06;19.90;99.90
9385;DHT22;4732;49.340;10.886;2023-07-29T10:02:39;20.00;99.90
9385;DHT22;4732;49.340;10.886;2023-07-29T10:05:06;20.20;99.90
9385;DHT22;4732;49.340;10.886;2023-07-29T10:07:36;20.20;99.90
9385;DHT22;4732;49.340;10.886;2023-07-29T10:10:04;20.30;99.90
9385;DHT22;4732;49.340;10.886;2023-07-29T10:12:34;20.30;99.90
9385;DHT22;4732;49.340;10.886;2023-07-29T10:15:02;20.20;99.90
9385;DHT22;4732;49.340;10.886;2023-07-29T10:17:29;20.10;99.90
9385;DHT22;4732;49.340;10.886;2023-07-29T10:19:57;20.20;99.90
9385;DHT22;4732;49.340;10.886;2023-07-29T10:22:26;20.40;99.90
9385;DHT22;4732;49.340;10.886;2023-07-29T10:24:56;20.50;99.90
9385;DHT22;4732;49.340;10.886;2023-07-29T10:27:24;20.60;99.90
9385;DHT22;4732;49.340;10.886;2023-07-29T10:29:50;20.70;99.90
9385;DHT22;4732;49.340;10.886;2023-07-29T10:32:19;20.70;99.90
9385;DHT22;4732;49.340;10.886;2023-07-29T10:34:47;20.70;99.90
9385;DHT22;4732;49.340;10.886;2023-07-29T10:37:13;20.80;99.90
9385;DHT22;4732;49.340;10.886;2023-07-29T10:39:40;20.90;99.90
9385;DHT22;4732;49.340;10.886;2023-07-29T10:42:06;21.00;99.90
9385;DHT22;4732;49.340;10.886;2023-07-29T10:49:41;21.60;99.90
9385;DHT22;4732;49.340;10.886;2023-07-29T10:52:06;21.90;99.90
9385;DHT22;4732;49.340;10.886;2023-07-29T10:54:45;22.10;99.90
9385;DHT22;4732;49.340;10.886;2023-07-29T10:57:37;22.50;99.90
9385;DHT22;4732;49.340;10.886;2023-07-29T11:00:04;22.50;99.90
9385;DHT22;4732;49.340;10.886;2023-07-29T11:02:36;22.70;99.90
9385;DHT22;4732;49.340;10.886;2023-07-29T11:05:15;22.80;99.90
9385;DHT22;4732;49.340;10.886;2023-07-29T11:07:46;22.80;99.90
9385;DHT22;4732;49.340;10.886;2023-07-29T11:10:13;22.80;99.90
9385;DHT22;4732;49.340;10.886;2023-07-29T11:12:41;23.00;99.90
9385;DHT22;4732;49.340;10.886;2023-07-29T11:15:29;22.90;99.90
9385;DHT22;4732;49.340;10.886;2023-07-29T11:18:00;23.20;99.90
9385;DHT22;4732;49.340;10.886;2023-07-29T11:20:30;22.90;99.90
9385;DHT22;4732;49.340;10.886;2023-07-29T11:22:57;22.60;99.90
9385;DHT22;4732;49.340;10.886;2023-07-29T11:25:26;22.60;99.90
9385;DHT22;4732;49.340;10.886;2023-07-29T11:27:53;22.60;99.90
9385;DHT22;4732;49.340;10.886;2023-07-29T11:30:19;22.50;99.90
9385;DHT22;4732;49.340;10.886;2023-07-29T11:32:46;22.30;99.90
9385;DHT22;4732;49.340;10.886;2023-07-29T11:35:13;22.10;99.90
9385;DHT22;4732;49.340;10.886;2023-07-29T11:37:41;22.10;99.90
9385;DHT22;4732;49.340;10.886;2023-07-29T11:40:08;22.00;99.90
9385;DHT22;4732;49.340;10.886;2023-07-29T11:42:36;22.10;99.90
9385;DHT22;4732;49.340;10.886;2023-07-29T11:45:02;22.10;99.90
9385;DHT22;4732;49.340;10.886;2023-07-29T11:47:29;22.00;99.90
9385;DHT22;4732;49.340;10.886;2023-07-29T11:49:58;21.90;99.90
9385;DHT22;4732;49.340;10.886;2023-07-29T11:52:25;21.90;99.90
9385;DHT22;4732;49.340;10.886;2023-07-29T11:54:52;22.00;99.90
9385;DHT22;4732;49.340;10.886;2023-07-29T11:57:18;22.00;99.90
9385;DHT22;4732;49.340;10.886;2023-07-29T11:59:45;22.10;99.90
9385;DHT22;4732;49.340;10.886;2023-07-29T12:02:13;22.20;99.90
9385;DHT22;4732;49.340;10.886;2023-07-29T12:04:40;22.40;99.90
9385;DHT22;4732;49.340;10.886;2023-07-29T12:07:07;22.60;99.90
9385;DHT22;4732;49.340;10.886;2023-07-29T12:09:34;22.80;99.90
9385;DHT22;4732;49.340;10.886;2023-07-29T12:12:02;23.10;99.90
9385;DHT22;4732;49.340;10.886;2023-07-29T12:14:31;23.40;99.90
9385;DHT22;4732;49.340;10.886;2023-07-29T12:17:00;23.80;99.90
9385;DHT22;4732;49.340;10.886;2023-07-29T12:19:38;24.10;99.90
9385;DHT22;4732;49.340;10.886;2023-07-29T12:22:05;24.30;99.90
9385;DHT22;4732;49.340;10.886;2023-07-29T12:24:31;24.50;99.90
9385;DHT22;4732;49.340;10.886;2023-07-29T12:26:58;24.80;99.90
9385;DHT22;4732;49.340;10.886;2023-07-29T12:29:23;24.90;99.90
9385;DHT22;4732;49.340;10.886;2023-07-29T12:31:53;24.80;99.90
9385;DHT22;4732;49.340;10.886;2023-07-29T12:34:22;24.90;99.90
9385;DHT22;4732;49.340;10.886;2023-07-29T12:36:51;25.10;99.90
9385;DHT22;4732;49.340;10.886;2023-07-29T12:39:18;25.20;99.90
9385;DHT22;4732;49.340;10.886;2023-07-29T12:41:44;25.40;99.90
9385;DHT22;4732;49.340;10.886;2023-07-29T12:44:10;25.70;99.90
9385;DHT22;4732;49.340;10.886;2023-07-29T12:46:35;26.10;99.90
9385;DHT22;4732;49.340;10.886;2023-07-29T12:49:01;26.70;99.90
9385;DHT22;4732;49.340;10.886;2023-07-29T12:51:27;27.10;99.90
9385;DHT22;4732;49.340;10.886;2023-07-29T12:53:53;27.00;99.90
9385;DHT22;4732;49.340;10.886;2023-07-29T12:56:19;26.70;99.90
9385;DHT22;4732;49.340;10.886;2023-07-29T12:58:44;26.70;99.90
9385;DHT22;4732;49.340;10.886;2023-07-29T13:01:10;26.10;99.90
9385;DHT22;4732;49.340;10.886;2023-07-29T13:03:38;26.50;99.90
9385;DHT22;4732;49.340;10.886;2023-07-29T13:06:04;26.40;99.90
9385;DHT22;4732;49.340;10.886;2023-07-29T13:08:30;25.80;99.90
9385;DHT22;4732;49.340;10.886;2023-07-29T13:10:56;25.40;99.90
9385;DHT22;4732;49.340;10.886;2023-07-29T13:13:22;25.30;99.90
9385;DHT22;4732;49.340;10.886;2023-07-29T13:15:47;25.60;99.90
9385;DHT22;4732;49.340;10.886;2023-07-29T13:18:13;25.70;99.90
9385;DHT22;4732;49.340;10.886;2023-07-29T13:20:38;25.70;99.90
9385;DHT22;4732;49.340;10.886;2023-07-29T13:23:04;26.10;99.90
9385;DHT22;4732;49.340;10.886;2023-07-29T13:25:29;26.10;99.90
9385;DHT22;4732;49.340;10.886;2023-07-29T13:27:55;26.10;99.90
9385;DHT22;4732;49.340;10.886;2023-07-29T13:30:20;26.10;99.90
9385;DHT22;4732;49.340;10.886;2023-07-29T13:32:46;25.90;99.90
9385;DHT22;4732;49.340;10.886;2023-07-29T13:35:11;27.00;99.90
9385;DHT22;4732;49.340;10.886;2023-07-29T13:37:37;26.80;99.90
9385;DHT22;4732;49.340;10.886;2023-07-29T13:40:02;26.50;99.90
9385;DHT22;4732;49.340;10.886;2023-07-29T13:42:28;26.20;99.90
9385;DHT22;4732;49.340;10.886;2023-07-29T13:44:53;26.40;99.90
9385;DHT22;4732;49.340;10.886;2023-07-29T13:47:19;26.50;99.90
9385;DHT22;4732;49.340;10.886;2023-07-29T13:49:44;26.90;99.90
9385;DHT22;4732;49.340;10.886;2023-07-29T13:52:10;26.80;99.90
9385;DHT22;4732;49.340;10.886;2023-07-29T13:54:35;27.60;99.90
9385;DHT22;4732;49.340;10.886;2023-07-29T13:57:01;27.20;99.90
9385;DHT22;4732;49.340;10.886;2023-07-29T13:59:26;26.80;99.90
9385;DHT22;4732;49.340;10.886;2023-07-29T14:01:52;26.90;99.90
9385;DHT22;4732;49.340;10.886;2023-07-29T14:04:17;26.70;99.90
9385;DHT22;4732;49.340;10.886;2023-07-29T14:06:43;26.50;99.90
9385;DHT22;4732;49.340;10.886;2023-07-29T14:09:08;26.90;99.90
9385;DHT22;4732;49.340;10.886;2023-07-29T14:11:34;27.00;99.90
9385;DHT22;4732;49.340;10.886;2023-07-29T14:13:59;27.40;99.90
9385;DHT22;4732;49.340;10.886;2023-07-29T14:16:25;27.60;99.90
9385;DHT22;4732;49.340;10.886;2023-07-29T14:18:50;27.10;99.90
9385;DHT22;4732;49.340;10.886;2023-07-29T14:21:16;27.30;99.90
9385;DHT22;4732;49.340;10.886;2023-07-29T14:23:41;27.00;99.90
9385;DHT22;4732;49.340;10.886;2023-07-29T14:26:07;26.40;99.90
9385;DHT22;4732;49.340;10.886;2023-07-29T14:28:35;26.80;99.90
9385;DHT22;4732;49.340;10.886;2023-07-29T14:31:01;26.60;99.90
9385;DHT22;4732;49.340;10.886;2023-07-29T14:33:26;26.50;99.90
9385;DHT22;4732;49.340;10.886;2023-07-29T14:35:52;25.90;99.90
9385;DHT22;4732;49.340;10.886;2023-07-29T14:38:17;25.80;99.90
9385;DHT22;4732;49.340;10.886;2023-07-29T14:40:43;26.10;99.90
9385;DHT22;4732;49.340;10.886;2023-07-29T14:43:08;25.20;99.90
9385;DHT22;4732;49.340;10.886;2023-07-29T14:45:34;25.70;99.90
9385;DHT22;4732;49.340;10.886;2023-07-29T14:47:59;24.90;99.90
9385;DHT22;4732;49.340;10.886;2023-07-29T14:50:24;25.60;99.90
9385;DHT22;4732;49.340;10.886;2023-07-29T14:52:50;25.70;99.90
9385;DHT22;4732;49.340;10.886;2023-07-29T14:55:16;25.70;99.90
9385;DHT22;4732;49.340;10.886;2023-07-29T14:57:41;26.70;99.90
9385;DHT22;4732;49.340;10.886;2023-07-29T15:00:07;26.90;99.90
9385;DHT22;4732;49.340;10.886;2023-07-29T15:02:33;26.50;99.90
9385;DHT22;4732;49.340;10.886;2023-07-29T15:04:59;26.90;99.90
9385;DHT22;4732;49.340;10.886;2023-07-29T15:07:24;26.80;99.90
9385;DHT22;4732;49.340;10.886;2023-07-29T15:09:50;27.40;99.90
9385;DHT22;4732;49.340;10.886;2023-07-29T15:12:15;26.90;99.90
9385;DHT22;4732;49.340;10.886;2023-07-29T15:14:41;26.90;99.90
9385;DHT22;4732;49.340;10.886;2023-07-29T15:17:07;27.30;99.90
9385;DHT22;4732;49.340;10.886;2023-07-29T15:19:33;27.20;99.90
9385;DHT22;4732;49.340;10.886;2023-07-29T15:21:58;27.30;99.90
9385;DHT22;4732;49.340;10.886;2023-07-29T15:24:24;27.40;99.90
9385;DHT22;4732;49.340;10.886;2023-07-29T15:26:49;27.60;99.90
9385;DHT22;4732;49.340;10.886;2023-07-29T15:29:15;27.50;99.90
9385;DHT22;4732;49.340;10.886;2023-07-29T15:31:40;27.90;99.90
9385;DHT22;4732;49.340;10.886;2023-07-29T15:34:07;28.20;99.90
9385;DHT22;4732;49.340;10.886;2023-07-29T15:36:32;28.30;99.90
9385;DHT22;4732;49.340;10.886;2023-07-29T15:38:58;28.40;99.90
9385;DHT22;4732;49.340;10.886;2023-07-29T15:41:24;28.00;99.90
9385;DHT22;4732;49.340;10.886;2023-07-29T15:43:49;28.30;99.90
9385;DHT22;4732;49.340;10.886;2023-07-29T15:46:15;28.30;99.90
9385;DHT22;4732;49.340;10.886;2023-07-29T15:48:40;28.10;99.90
9385;DHT22;4732;49.340;10.886;2023-07-29T15:51:06;27.80;99.90
9385;DHT22;4732;49.340;10.886;2023-07-29T15:53:32;27.40;99.90
9385;DHT22;4732;49.340;10.886;2023-07-29T15:55:58;27.30;99.90
9385;DHT22;4732;49.340;10.886;2023-07-29T15:58:23;27.00;99.90
9385;DHT22;4732;49.340;10.886;2023-07-29T16:00:49;27.50;99.90
9385;DHT22;4732;49.340;10.886;2023-07-29T16:03:14;27.60;99.90
9385;DHT22;4732;49.340;10.886;2023-07-29T16:05:40;27.50;99.90
9385;DHT22;4732;49.340;10.886;2023-07-29T16:08:05;27.00;99.90
9385;DHT22;4732;49.340;10.886;2023-07-29T16:10:31;27.40;99.90
9385;DHT22;4732;49.340;10.886;2023-07-29T16:12:56;27.10;99.90
9385;DHT22;4732;49.340;10.886;2023-07-29T16:15:22;26.00;99.90
9385;DHT22;4732;49.340;10.886;2023-07-29T16:17:48;26.60;99.90
9385;DHT22;4732;49.340;10.886;2023-07-29T16:20:18;26.50;99.90
9385;DHT22;4732;49.340;10.886;2023-07-29T16:22:43;26.80;99.90
9385;DHT22;4732;49.340;10.886;2023-07-29T16:25:09;26.30;99.90
9385;DHT22;4732;49.340;10.886;2023-07-29T16:27:34;26.70;99.90
9385;DHT22;4732;49.340;10.886;2023-07-29T16:30:01;26.20;99.90
9385;DHT22;4732;49.340;10.886;2023-07-29T16:32:27;26.50;99.90
9385;DHT22;4732;49.340;10.886;2023-07-29T16:34:53;26.40;99.90
9385;DHT22;4732;49.340;10.886;2023-07-29T16:37:19;26.00;99.90
9385;DHT22;4732;49.340;10.886;2023-07-29T16:39:45;25.80;99.90
9385;DHT22;4732;49.340;10.886;2023-07-29T16:42:10;25.50;99.90
9385;DHT22;4732;49.340;10.886;2023-07-29T16:44:36;25.30;99.90
9385;DHT22;4732;49.340;10.886;2023-07-29T16:47:01;25.20;99.90
9385;DHT22;4732;49.340;10.886;2023-07-29T16:49:27;25.00;99.90
9385;DHT22;4732;49.340;10.886;2023-07-29T16:51:53;24.90;99.90
9385;DHT22;4732;49.340;10.886;2023-07-29T16:54:19;24.90;99.90
9385;DHT22;4732;49.340;10.886;2023-07-29T16:56:46;24.80;99.90
9385;DHT22;4732;49.340;10.886;2023-07-29T16:59:12;24.80;99.90
9385;DHT22;4732;49.340;10.886;2023-07-29T17:01:37;24.70;99.90
9385;DHT22;4732;49.340;10.886;2023-07-29T17:04:03;24.70;99.90
9385;DHT22;4732;49.340;10.886;2023-07-29T17:06:29;24.60;99.90
9385;DHT22;4732;49.340;10.886;2023-07-29T17:08:54;24.70;99.90
9385;DHT22;4732;49.340;10.886;2023-07-29T17:11:20;24.60;99.90
9385;DHT22;4732;49.340;10.886;2023-07-29T17:13:45;24.50;99.90
9385;DHT22;4732;49.340;10.886;2023-07-29T17:16:10;24.40;99.90
9385;DHT22;4732;49.340;10.886;2023-07-29T17:18:36;24.30;99.90
9385;DHT22;4732;49.340;10.886;2023-07-29T17:21:04;24.20;99.90
9385;DHT22;4732;49.340;10.886;2023-07-29T17:23:30;24.10;99.90
9385;DHT22;4732;49.340;10.886;2023-07-29T17:25:55;24.00;99.90
9385;DHT22;4732;49.340;10.886;2023-07-29T17:28:21;24.00;99.90
9385;DHT22;4732;49.340;10.886;2023-07-29T17:30:50;23.80;99.90
9385;DHT22;4732;49.340;10.886;2023-07-29T17:33:18;23.70;99.90
9385;DHT22;4732;49.340;10.886;2023-07-29T17:35:45;23.70;99.90
9385;DHT22;4732;49.340;10.886;2023-07-29T17:38:11;23.70;99.90
9385;DHT22;4732;49.340;10.886;2023-07-29T17:40:36;23.70;99.90
9385;DHT22;4732;49.340;10.886;2023-07-29T17:43:02;23.60;99.90
9385;DHT22;4732;49.340;10.886;2023-07-29T17:45:28;23.50;99.90
9385;DHT22;4732;49.340;10.886;2023-07-29T17:47:54;23.40;99.90
9385;DHT22;4732;49.340;10.886;2023-07-29T17:50:19;23.50;99.90
9385;DHT22;4732;49.340;10.886;2023-07-29T17:52:45;23.40;99.90
9385;DHT22;4732;49.340;10.886;2023-07-29T17:55:11;23.50;99.90
9385;DHT22;4732;49.340;10.886;2023-07-29T17:57:37;23.40;99.90
9385;DHT22;4732;49.340;10.886;2023-07-29T18:00:03;23.20;99.90
9385;DHT22;4732;49.340;10.886;2023-07-29T18:02:31;23.20;99.90
9385;DHT22;4732;49.340;10.886;2023-07-29T18:04:57;23.20;99.90
9385;DHT22;4732;49.340;10.886;2023-07-29T18:07:23;23.10;99.90
9385;DHT22;4732;49.340;10.886;2023-07-29T18:09:49;23.00;99.90
9385;DHT22;4732;49.340;10.886;2023-07-29T18:12:14;23.00;99.90
9385;DHT22;4732;49.340;10.886;2023-07-29T18:14:40;23.00;99.90
9385;DHT22;4732;49.340;10.886;2023-07-29T18:17:06;22.80;99.90
9385;DHT22;4732;49.340;10.886;2023-07-29T18:19:31;22.70;99.90
9385;DHT22;4732;49.340;10.886;2023-07-29T18:21:58;22.70;99.90
9385;DHT22;4732;49.340;10.886;2023-07-29T18:24:23;22.60;99.90
9385;DHT22;4732;49.340;10.886;2023-07-29T18:26:49;22.50;99.90
9385;DHT22;4732;49.340;10.886;2023-07-29T18:29:14;22.50;99.90
9385;DHT22;4732;49.340;10.886;2023-07-29T18:31:40;22.50;99.90
9385;DHT22;4732;49.340;10.886;2023-07-29T18:34:06;22.50;99.90
9385;DHT22;4732;49.340;10.886;2023-07-29T18:36:31;22.40;99.90
9385;DHT22;4732;49.340;10.886;2023-07-29T18:38:57;22.30;99.90
9385;DHT22;4732;49.340;10.886;2023-07-29T18:41:22;22.40;99.90
9385;DHT22;4732;49.340;10.886;2023-07-29T18:43:48;22.30;99.90